Pahrump, Nevada
Current Conditions -  °F | °C
As of 4:52 AM on Friday 24 Oct 2014 (Local Time) from KDRA Reporting Station
Clear Clear  
Wind Chill: 53°   Ceiling: Unl
Heat Index: 53°   Visibility: 10mi
Dew Point: 29°   Wind: 5mph
Humidity: 40%   Direction: 30°NNE
Pressure: 30.09"   Gusts: NA
Location:  36.21°N, 115.99°W
Report Text: KDRA 241152Z AUTO 03004KT 10SM CLR 12/M02 A3009 RMK AO2 SLP154 T01171017 10167 20111 53000
Loading
Personal Weather Stations






























Interactive Weather Map
Tropical Storm Tracking
New forecast layout! Learn more

10-Day Weather Forecast

Advertisements
Track Severe Weather on mobile